createdAt,value
2022-12-08T07:21:40.104Z,0.36
2022-12-08T07:22:44.039Z,0
2022-12-08T07:23:51.358Z,0
2022-12-08T07:24:51.997Z,0
2022-12-08T07:25:56.000Z,0
2022-12-08T07:26:59.997Z,0.85
2022-12-08T07:28:04.031Z,0
2022-12-08T07:29:08.052Z,0
2022-12-08T07:30:11.978Z,0.85
2022-12-08T07:31:16.098Z,0.36
2022-12-08T07:32:20.000Z,0.85
2022-12-08T07:33:24.017Z,0.36
2022-12-08T07:34:28.001Z,0.36
2022-12-08T07:35:34.727Z,0.36
2022-12-08T07:36:32.769Z,0.85
2022-12-08T07:37:32.695Z,0.36
2022-12-08T07:38:32.693Z,1.22
2022-12-08T07:39:32.758Z,0.85
2022-12-08T07:40:32.680Z,1.22
2022-12-08T07:41:32.705Z,1.22
2022-12-08T07:42:32.691Z,0.85
2022-12-08T07:43:32.712Z,1.22
2022-12-08T07:44:32.683Z,1.22
2022-12-08T07:45:32.681Z,1.71
2022-12-08T07:46:32.780Z,1.71
2022-12-08T07:47:32.684Z,2.08
2022-12-08T07:48:32.690Z,2.08
2022-12-08T07:49:32.737Z,2.08
2022-12-08T07:50:32.686Z,1.71
2022-12-08T07:51:32.660Z,2.08
2022-12-08T07:52:32.679Z,2.94
2022-12-08T07:53:32.923Z,2.57
2022-12-08T07:54:32.690Z,2.57
2022-12-08T07:55:32.656Z,3.43
2022-12-08T07:56:32.721Z,3.79
2022-12-08T07:57:32.682Z,3.79
2022-12-08T07:58:32.707Z,2.94
2022-12-08T07:59:32.695Z,3.43
2022-12-08T08:00:32.905Z,3.79
2022-12-08T08:01:32.901Z,3.79
2022-12-08T08:02:32.812Z,3.79
2022-12-08T08:03:32.667Z,5.14
2022-12-08T08:04:32.729Z,3.79
2022-12-08T08:05:32.945Z,5.14
2022-12-08T08:06:32.684Z,5.14
2022-12-08T08:07:32.672Z,5.63
2022-12-08T08:08:32.863Z,5.14
2022-12-08T08:09:32.696Z,5.99
2022-12-08T08:10:32.671Z,5.99
2022-12-08T08:11:32.689Z,5.99
2022-12-08T08:12:33.079Z,6.48
2022-12-08T08:13:32.682Z,6.48
2022-12-08T08:14:32.718Z,6.85
2022-12-08T08:15:32.946Z,7.7
2022-12-08T08:16:38.162Z,8.19
2022-12-08T08:17:32.860Z,7.34
2022-12-08T08:18:32.676Z,7.7
2022-12-08T08:19:32.687Z,8.56
2022-12-08T08:20:32.693Z,8.56
2022-12-08T08:21:45.486Z,7.7
2022-12-08T08:22:32.689Z,7.7
2022-12-08T08:23:32.663Z,9.54
2022-12-08T08:24:32.720Z,9.54
2022-12-08T08:25:32.659Z,9.05
2022-12-08T08:26:32.748Z,9.05
2022-12-08T08:27:32.679Z,9.91
2022-12-08T08:28:32.674Z,10.77
2022-12-08T08:29:32.706Z,10.77
2022-12-08T08:30:32.682Z,11.62
2022-12-08T08:31:32.748Z,11.25
2022-12-08T08:32:32.685Z,12.11
2022-12-08T08:33:32.751Z,12.11
2022-12-08T08:34:32.709Z,12.48
2022-12-08T08:35:32.672Z,13.33
2022-12-08T08:36:32.693Z,12.11
2022-12-08T08:37:32.703Z,12.97
2022-12-08T08:38:32.686Z,12.97
2022-12-08T08:39:32.672Z,13.82
2022-12-08T08:40:32.687Z,12.97
2022-12-08T08:41:32.668Z,13.82
2022-12-08T08:42:32.682Z,13.82
2022-12-08T08:43:37.771Z,13.33
2022-12-08T08:44:32.672Z,13.82
2022-12-08T08:45:32.712Z,14.31
2022-12-08T08:46:32.785Z,14.68
2022-12-08T08:47:32.705Z,14.31
2022-12-08T08:48:32.680Z,13.82
2022-12-08T08:49:32.746Z,14.68
2022-12-08T08:50:37.399Z,14.68
2022-12-08T08:51:32.689Z,14.68
2022-12-08T08:52:32.699Z,14.68
2022-12-08T08:53:32.756Z,15.17
2022-12-08T08:54:32.697Z,15.17
2022-12-08T08:55:32.688Z,14.68
2022-12-08T08:56:32.715Z,14.31
2022-12-08T08:57:32.684Z,14.68
2022-12-08T08:58:32.721Z,14.68
2022-12-08T08:59:32.710Z,14.68
2022-12-08T09:00:32.696Z,14.68
2022-12-08T09:01:32.821Z,15.17
2022-12-08T09:02:32.681Z,14.68
2022-12-08T09:03:32.670Z,15.17
2022-12-08T09:04:32.709Z,14.31
2022-12-08T09:05:32.803Z,15.17
2022-12-08T09:06:32.925Z,14.68
2022-12-08T09:07:32.693Z,14.68
2022-12-08T09:08:32.843Z,14.68
2022-12-08T09:09:32.692Z,15.53
2022-12-08T09:10:32.686Z,15.17
2022-12-08T09:11:32.657Z,15.17
2022-12-08T09:12:32.685Z,15.17
2022-12-08T09:13:32.679Z,15.17
2022-12-08T09:14:32.648Z,15.53
2022-12-08T09:15:32.838Z,15.53
2022-12-08T09:16:37.503Z,15.17
2022-12-08T09:17:32.711Z,16.02
2022-12-08T09:18:32.652Z,16.39
2022-12-08T09:19:32.666Z,16.02
2022-12-08T09:20:32.692Z,15.53
2022-12-08T09:21:32.668Z,16.88
2022-12-08T09:22:32.804Z,17.25
2022-12-08T09:23:35.606Z,16.02
2022-12-08T09:24:32.679Z,16.39
2022-12-08T09:25:32.694Z,16.39
2022-12-08T09:26:32.721Z,16.88
2022-12-08T09:27:32.666Z,16.39
2022-12-08T09:28:32.863Z,16.88
2022-12-08T09:29:36.021Z,16.88
2022-12-08T09:30:32.688Z,16.88
2022-12-08T09:31:32.996Z,16.88
2022-12-08T09:32:32.853Z,16.88
2022-12-08T09:33:32.722Z,16.88
2022-12-08T09:34:32.745Z,17.73
2022-12-08T09:35:32.687Z,17.25
2022-12-08T09:36:32.764Z,17.73
2022-12-08T09:37:32.676Z,17.73
2022-12-08T09:38:32.678Z,17.25
2022-12-08T09:39:32.693Z,18.11
2022-12-08T09:40:32.663Z,17.73
2022-12-08T09:41:38.953Z,18.6
2022-12-08T09:42:32.760Z,18.11
2022-12-08T09:43:32.627Z,19.08
2022-12-08T09:44:32.682Z,18.6
2022-12-08T09:45:32.680Z,19.08
2022-12-08T09:46:32.885Z,19.94
2022-12-08T09:47:35.999Z,19.94
2022-12-08T09:48:32.665Z,19.45
2022-12-08T09:49:32.851Z,19.45
2022-12-08T09:50:32.668Z,19.94
2022-12-08T09:51:32.668Z,19.45
2022-12-08T09:52:32.651Z,19.08
2022-12-08T09:53:35.599Z,19.08
2022-12-08T09:54:32.779Z,19.94
2022-12-08T09:55:32.706Z,19.45
2022-12-08T09:56:32.712Z,19.94
2022-12-08T09:57:32.712Z,19.94
2022-12-08T09:58:32.634Z,20.31
2022-12-08T09:59:32.630Z,20.31
2022-12-08T10:00:32.797Z,19.45
2022-12-08T10:01:32.713Z,19.45
2022-12-08T10:02:32.668Z,20.8
2022-12-08T10:03:32.620Z,20.31
2022-12-08T10:04:33.036Z,19.94
2022-12-08T10:05:32.795Z,20.31
2022-12-08T10:06:32.658Z,20.31
2022-12-08T10:07:32.675Z,20.31
2022-12-08T10:08:32.706Z,19.94
2022-12-08T10:09:32.817Z,19.94
2022-12-08T10:10:32.670Z,20.31
2022-12-08T10:11:32.712Z,20.8
2022-12-08T10:12:32.721Z,19.94
2022-12-08T10:13:32.712Z,19.94
2022-12-08T10:14:32.747Z,20.31
2022-12-08T10:15:32.709Z,19.45
2022-12-08T10:16:32.921Z,20.31
2022-12-08T10:17:32.640Z,19.94
2022-12-08T10:18:32.688Z,19.08
2022-12-08T10:19:32.741Z,19.45
2022-12-08T10:20:32.713Z,19.45
2022-12-08T10:21:32.658Z,19.94
2022-12-08T10:22:32.646Z,19.94
2022-12-08T10:23:32.657Z,19.08
2022-12-08T10:24:32.765Z,19.45
2022-12-08T10:25:32.645Z,19.45
2022-12-08T10:26:32.688Z,19.45
2022-12-08T10:27:32.665Z,19.08
2022-12-08T10:28:32.677Z,19.08
2022-12-08T10:29:32.772Z,19.08
2022-12-08T10:30:32.700Z,18.6
2022-12-08T10:31:32.812Z,18.6
2022-12-08T10:32:32.652Z,18.6
2022-12-08T10:33:32.791Z,19.08
2022-12-08T10:34:32.731Z,18.6
2022-12-08T10:35:32.659Z,18.6
2022-12-08T10:36:32.683Z,17.73
2022-12-08T10:37:32.686Z,18.6
2022-12-08T10:38:32.671Z,19.45
2022-12-08T10:39:32.715Z,18.11
2022-12-08T10:40:32.701Z,18.11
2022-12-08T10:41:32.640Z,18.11
2022-12-08T10:42:32.735Z,18.11
2022-12-08T10:43:32.651Z,18.11
2022-12-08T10:44:32.780Z,17.73
2022-12-08T10:45:32.696Z,17.73
2022-12-08T10:46:32.783Z,17.73
2022-12-08T10:47:32.682Z,17.73
2022-12-08T10:48:32.673Z,17.73
2022-12-08T10:49:32.632Z,16.88
2022-12-08T10:50:32.672Z,18.11
2022-12-08T10:51:32.671Z,18.11
2022-12-08T10:52:32.697Z,18.11
2022-12-08T10:53:32.815Z,17.25
2022-12-08T10:54:32.667Z,17.73
2022-12-08T10:55:32.669Z,18.11
2022-12-08T10:56:32.667Z,17.73
2022-12-08T10:57:32.617Z,19.08
2022-12-08T10:58:32.667Z,18.11
2022-12-08T10:59:32.664Z,18.11
2022-12-08T11:00:32.915Z,17.73
2022-12-08T11:01:32.844Z,17.73
2022-12-08T11:02:32.771Z,17.73
2022-12-08T11:03:32.779Z,18.11
2022-12-08T11:04:32.697Z,18.11
2022-12-08T11:05:32.636Z,18.11
2022-12-08T11:06:32.662Z,18.6
2022-12-08T11:07:32.667Z,17.73
2022-12-08T11:08:32.757Z,17.73
2022-12-08T11:09:32.649Z,17.25
2022-12-08T11:10:32.802Z,17.73
2022-12-08T11:11:32.676Z,18.6
2022-12-08T11:12:32.654Z,17.25
2022-12-08T11:13:33.743Z,17.73
2022-12-08T11:14:32.666Z,18.11
2022-12-08T11:15:32.654Z,18.11
2022-12-08T11:16:32.842Z,19.08
2022-12-08T11:17:32.630Z,18.6
2022-12-08T11:18:32.705Z,18.11
2022-12-08T11:19:32.670Z,18.6
2022-12-08T11:20:32.618Z,17.73
2022-12-08T11:21:32.703Z,18.6
2022-12-08T11:22:32.665Z,18.6
2022-12-08T11:23:32.660Z,19.08
2022-12-08T11:24:37.376Z,19.94
2022-12-08T11:25:32.656Z,20.8
2022-12-08T11:26:32.687Z,22.87
2022-12-08T11:27:32.652Z,22.87
2022-12-08T11:28:32.622Z,20.31
2022-12-08T11:29:32.657Z,20.8
2022-12-08T11:30:32.675Z,22.02
2022-12-08T11:31:32.725Z,23.36
2022-12-08T11:32:32.877Z,24.71
2022-12-08T11:33:32.655Z,25.94
2022-12-08T11:34:32.772Z,26.42
2022-12-08T11:35:32.622Z,23.85
2022-12-08T11:36:32.635Z,25.07
2022-12-08T11:37:34.995Z,26.42
2022-12-08T11:38:32.681Z,28.14
2022-12-08T11:39:32.674Z,25.56
2022-12-08T11:40:32.634Z,25.07
2022-12-08T11:41:32.633Z,25.56
2022-12-08T11:42:32.662Z,26.42
2022-12-08T11:43:32.662Z,25.94
2022-12-08T11:44:32.624Z,25.56
2022-12-08T11:45:32.745Z,21.65
2022-12-08T11:46:32.737Z,20.8
2022-12-08T11:47:32.715Z,20.8
2022-12-08T11:48:32.642Z,20.31
2022-12-08T11:49:32.673Z,19.08
2022-12-08T11:50:32.661Z,17.73
2022-12-08T11:51:32.677Z,17.73
2022-12-08T11:52:32.631Z,17.25
2022-12-08T11:53:32.716Z,17.73
2022-12-08T11:54:32.625Z,17.73
2022-12-08T11:55:37.102Z,16.02
2022-12-08T11:56:32.635Z,17.25
2022-12-08T11:57:33.069Z,16.88
2022-12-08T11:58:32.690Z,16.88
2022-12-08T11:59:32.654Z,16.39
2022-12-08T12:00:32.667Z,16.39
2022-12-08T12:01:33.986Z,16.02
2022-12-08T12:02:32.709Z,15.17
2022-12-08T12:03:32.706Z,16.02
2022-12-08T12:04:32.636Z,16.02
2022-12-08T12:06:03.394Z,15.53
2022-12-08T12:06:53.228Z,15.17
2022-12-08T12:07:32.717Z,15.17
2022-12-08T12:08:32.631Z,14.31
2022-12-08T12:09:32.669Z,14.68
2022-12-08T12:10:32.625Z,13.82
2022-12-08T12:11:32.627Z,13.33
2022-12-08T12:12:36.386Z,12.48
2022-12-08T12:13:32.714Z,12.48
2022-12-08T12:14:32.630Z,13.33
2022-12-08T12:15:32.713Z,12.48
2022-12-08T12:16:32.688Z,12.48
2022-12-08T12:17:32.650Z,12.11
2022-12-08T12:18:32.655Z,12.48
2022-12-08T12:19:32.693Z,12.11
2022-12-08T12:20:32.675Z,11.62
2022-12-08T12:21:32.661Z,11.62
2022-12-08T12:22:32.647Z,11.62
2022-12-08T12:23:32.671Z,11.25
2022-12-08T12:24:35.800Z,11.25
2022-12-08T12:25:32.682Z,11.62
2022-12-08T12:26:32.644Z,11.25
2022-12-08T12:27:32.660Z,9.91
2022-12-08T12:28:32.642Z,11.25
2022-12-08T12:29:32.685Z,10.39
2022-12-08T12:30:32.700Z,10.39
2022-12-08T12:31:32.660Z,10.77
2022-12-08T12:32:32.631Z,9.91
2022-12-08T12:33:32.617Z,10.77
2022-12-08T12:34:32.617Z,9.91
2022-12-08T12:35:32.636Z,9.54
2022-12-08T12:36:32.656Z,9.91
2022-12-08T12:37:32.711Z,9.91
2022-12-08T12:38:32.607Z,9.91
2022-12-08T12:39:32.683Z,9.05
2022-12-08T12:40:32.733Z,8.56
2022-12-08T12:41:32.688Z,9.91
2022-12-08T12:42:32.613Z,9.05
2022-12-08T12:43:32.628Z,9.05
2022-12-08T12:44:32.719Z,8.56
2022-12-08T12:45:32.663Z,9.05
2022-12-08T12:46:32.735Z,9.05
2022-12-08T12:47:32.644Z,8.19
2022-12-08T12:48:32.670Z,9.05
2022-12-08T12:49:32.628Z,9.05
2022-12-08T12:50:32.595Z,8.56
2022-12-08T12:51:32.671Z,9.05
2022-12-08T12:52:32.618Z,9.05
2022-12-08T12:53:32.646Z,8.56
2022-12-08T12:54:32.621Z,8.56
2022-12-08T12:55:32.643Z,7.7
2022-12-08T12:56:32.642Z,8.56
2022-12-08T12:57:32.741Z,8.19
2022-12-08T12:58:32.618Z,7.34
2022-12-08T12:59:32.652Z,7.7
2022-12-08T13:00:32.762Z,8.19
2022-12-08T13:01:32.672Z,7.7
2022-12-08T13:02:32.738Z,7.34
2022-12-08T13:03:32.712Z,7.34
2022-12-08T13:04:32.761Z,7.34
2022-12-08T13:05:32.673Z,6.85
2022-12-08T13:06:32.602Z,6.48
2022-12-08T13:07:32.650Z,6.48
2022-12-08T13:08:32.765Z,6.85
2022-12-08T13:09:32.660Z,5.63
2022-12-08T13:10:32.674Z,5.63
2022-12-08T13:11:32.666Z,5.14
2022-12-08T13:12:32.648Z,5.63
2022-12-08T13:13:32.631Z,5.63
2022-12-08T13:14:32.884Z,4.77
2022-12-08T13:15:32.647Z,5.63
2022-12-08T13:16:32.718Z,5.14
2022-12-08T13:17:32.660Z,5.63
2022-12-08T13:18:32.623Z,5.14
2022-12-08T13:19:32.650Z,5.14
2022-12-08T13:20:32.640Z,4.28
2022-12-08T13:21:32.766Z,4.77
2022-12-08T13:22:32.636Z,3.79
2022-12-08T13:23:32.639Z,4.77
2022-12-08T13:24:32.623Z,3.79
2022-12-08T13:25:36.589Z,4.28
2022-12-08T13:26:32.659Z,3.43
2022-12-08T13:27:32.634Z,3.79
2022-12-08T13:28:32.618Z,2.57
2022-12-08T13:29:32.669Z,2.57
2022-12-08T13:30:32.683Z,2.57
2022-12-08T13:31:32.656Z,2.08
2022-12-08T13:32:48.859Z,2.08
2022-12-08T13:33:32.700Z,2.57
2022-12-08T13:34:32.622Z,2.57
2022-12-08T13:35:32.645Z,2.94
2022-12-08T13:36:32.620Z,2.08
2022-12-08T13:37:32.654Z,2.08
2022-12-08T13:38:32.795Z,2.08
2022-12-08T13:39:32.654Z,2.08
2022-12-08T13:40:32.687Z,1.71
2022-12-08T13:41:32.641Z,1.22
2022-12-08T13:42:32.723Z,1.71
2022-12-08T13:43:44.672Z,1.22
2022-12-08T13:45:18.700Z,0.85
2022-12-08T13:46:31.856Z,0.85
2022-12-08T13:47:09.817Z,1.22
2022-12-08T13:47:34.469Z,0.85
2022-12-08T13:48:56.198Z,0.85
2022-12-08T13:51:51.246Z,0.85
2022-12-08T13:55:12.200Z,0
2022-12-08T13:57:08.430Z,0
2022-12-08T13:57:33.053Z,0.36
2022-12-08T13:58:32.676Z,0
2022-12-08T13:59:32.644Z,0
2022-12-08T14:00:32.881Z,0
2022-12-08T14:01:32.731Z,0
2022-12-08T14:02:32.709Z,0
2022-12-08T14:03:32.636Z,0
2022-12-08T14:05:17.028Z,0
2022-12-08T14:06:03.180Z,0
2022-12-08T14:06:32.698Z,0
2022-12-08T14:07:32.646Z,0
2022-12-08T14:08:57.892Z,0
2022-12-08T14:09:32.725Z,0
2022-12-08T14:10:32.649Z,0
2022-12-08T14:11:32.670Z,0
2022-12-08T14:12:32.640Z,0
2022-12-08T14:13:32.636Z,0
2022-12-08T14:15:01.158Z,0
2022-12-08T14:15:37.517Z,0
2022-12-08T14:16:32.684Z,0
2022-12-08T14:17:32.655Z,0
2022-12-08T14:18:32.642Z,0
2022-12-08T14:19:32.665Z,0
2022-12-08T14:20:46.497Z,0
2022-12-08T14:21:36.026Z,0
2022-12-08T14:22:32.692Z,0
2022-12-08T14:23:32.629Z,0
2022-12-08T14:24:32.613Z,0
2022-12-08T14:25:32.636Z,0
2022-12-08T14:26:32.682Z,0
2022-12-08T14:27:32.634Z,0
2022-12-08T14:28:32.591Z,0
2022-12-08T14:29:32.770Z,0
2022-12-08T14:30:32.638Z,0
2022-12-08T14:31:32.654Z,0
2022-12-08T14:32:32.625Z,0
2022-12-08T14:33:32.768Z,0
2022-12-08T14:34:32.661Z,0
2022-12-08T14:35:32.645Z,0
2022-12-08T14:36:32.616Z,0
2022-12-08T14:37:32.655Z,0
2022-12-08T14:38:32.741Z,0
2022-12-08T14:39:32.721Z,0
2022-12-08T14:40:32.661Z,0
2022-12-08T14:41:32.636Z,0
2022-12-08T14:42:32.649Z,0
2022-12-08T14:43:32.634Z,0
2022-12-08T14:44:32.630Z,0
2022-12-08T14:45:34.891Z,0
2022-12-08T14:46:32.785Z,0
2022-12-08T14:47:32.621Z,0
2022-12-08T14:48:32.617Z,0
2022-12-08T14:49:32.640Z,0
2022-12-08T14:50:32.647Z,0
2022-12-08T14:51:32.646Z,0
2022-12-08T14:52:32.601Z,0
2022-12-08T14:53:32.649Z,0
2022-12-08T14:54:32.624Z,0
2022-12-08T14:55:32.681Z,0
2022-12-08T14:56:32.649Z,0
2022-12-08T14:57:32.628Z,0
2022-12-08T14:58:32.651Z,0
2022-12-08T14:59:32.648Z,0
2022-12-08T15:00:32.652Z,0
2022-12-08T15:01:32.713Z,0
2022-12-08T15:02:32.659Z,0
2022-12-08T15:03:32.644Z,0
2022-12-08T15:04:32.736Z,0
2022-12-08T15:05:32.817Z,0
2022-12-08T15:06:32.639Z,0
2022-12-08T15:07:32.651Z,0
2022-12-08T15:08:32.632Z,0
2022-12-08T15:09:32.639Z,0
2022-12-08T15:10:32.768Z,0
2022-12-08T15:11:32.642Z,0
2022-12-08T15:12:32.626Z,0
2022-12-08T15:13:32.603Z,0
2022-12-08T15:14:32.621Z,0
2022-12-08T15:15:32.670Z,0
2022-12-08T15:16:32.672Z,0
2022-12-08T15:17:32.599Z,0
2022-12-08T15:18:32.612Z,0
2022-12-08T15:19:32.640Z,0
2022-12-08T15:20:35.348Z,0
2022-12-08T15:21:32.617Z,0
2022-12-08T15:22:32.662Z,0
2022-12-08T15:23:32.679Z,0
2022-12-08T15:24:32.619Z,0
2022-12-08T15:25:32.623Z,0
2022-12-08T15:26:32.631Z,0
2022-12-08T15:27:40.902Z,0
2022-12-08T15:28:32.628Z,0
2022-12-08T15:29:32.616Z,0
2022-12-08T15:30:32.649Z,0
2022-12-08T15:31:32.663Z,0
2022-12-08T15:32:32.610Z,0
2022-12-08T15:33:32.583Z,0
2022-12-08T15:34:32.623Z,0
2022-12-08T15:35:35.971Z,0
2022-12-08T15:36:32.701Z,0
2022-12-08T15:37:32.636Z,0
2022-12-08T15:38:32.632Z,0
2022-12-08T15:39:32.643Z,0
2022-12-08T15:40:32.626Z,0
2022-12-08T15:41:32.636Z,0
2022-12-08T15:42:32.643Z,0
2022-12-08T15:43:32.610Z,0
2022-12-08T15:44:32.924Z,0
2022-12-08T15:45:32.635Z,0
2022-12-08T15:46:32.675Z,0
2022-12-08T15:47:32.612Z,0
2022-12-08T15:48:32.636Z,0
2022-12-08T15:49:32.631Z,0
2022-12-08T15:50:32.624Z,0
2022-12-08T15:51:32.620Z,0
2022-12-08T15:52:32.632Z,0
2022-12-08T15:53:32.687Z,0
2022-12-08T15:54:32.642Z,0
2022-12-08T15:55:37.180Z,0
2022-12-08T15:56:34.455Z,0
2022-12-08T15:58:17.096Z,0
2022-12-08T15:58:53.697Z,0
2022-12-08T15:59:32.681Z,0
2022-12-08T16:00:51.786Z,0
2022-12-08T16:01:32.743Z,0
2022-12-08T16:02:56.279Z,0
2022-12-08T16:04:27.459Z,0
2022-12-08T16:05:33.167Z,0
2022-12-08T16:05:46.673Z,0
2022-12-08T16:07:32.715Z,0
2022-12-08T16:08:49.497Z,0
2022-12-08T16:09:32.759Z,0
2022-12-08T16:11:00.660Z,0
2022-12-08T16:13:01.709Z,0
2022-12-08T16:13:57.846Z,0
2022-12-08T16:15:39.193Z,0
2022-12-08T16:15:51.737Z,0
2022-12-08T16:16:32.710Z,0
2022-12-08T16:17:32.810Z,0
2022-12-08T16:18:32.625Z,0
2022-12-08T16:19:32.582Z,0
2022-12-08T16:20:58.878Z,0
2022-12-08T16:22:12.137Z,0
2022-12-08T16:23:07.620Z,0
2022-12-08T16:23:43.172Z,0
2022-12-08T16:24:32.631Z,0
2022-12-08T16:25:52.651Z,0
2022-12-08T16:27:28.530Z,0
2022-12-08T16:28:00.376Z,0
2022-12-08T16:28:53.280Z,0
2022-12-08T16:29:32.729Z,0
2022-12-08T16:30:32.657Z,0
2022-12-08T16:31:32.738Z,0
2022-12-08T16:32:32.724Z,0
2022-12-08T16:33:32.810Z,0
2022-12-08T16:34:32.662Z,0
2022-12-08T16:35:32.592Z,0
2022-12-08T16:36:32.633Z,0
2022-12-08T16:37:32.648Z,0
2022-12-08T16:38:32.676Z,0
2022-12-08T16:39:32.657Z,0
2022-12-08T16:40:32.667Z,0
2022-12-08T16:41:32.640Z,0
2022-12-08T16:42:32.635Z,0
2022-12-08T16:43:32.617Z,0
2022-12-08T16:44:32.640Z,0
2022-12-08T16:45:32.751Z,0
2022-12-08T16:46:32.704Z,0
2022-12-08T16:47:32.585Z,0
2022-12-08T16:48:32.606Z,0
2022-12-08T16:49:32.595Z,0
2022-12-08T16:50:32.640Z,0
2022-12-08T16:51:32.614Z,0
2022-12-08T16:52:32.623Z,0
2022-12-08T16:53:32.696Z,0
2022-12-08T16:54:32.698Z,0
2022-12-08T16:55:32.600Z,0
2022-12-08T16:56:33.665Z,0
2022-12-08T16:57:32.644Z,0
2022-12-08T16:58:32.625Z,0
2022-12-08T16:59:32.651Z,0
2022-12-08T17:00:32.615Z,0
2022-12-08T17:01:32.780Z,0
2022-12-08T17:02:32.695Z,0
2022-12-08T17:03:32.621Z,0
2022-12-08T17:04:32.827Z,0
2022-12-08T17:05:33.752Z,0
2022-12-08T17:06:44.157Z,0
2022-12-08T17:07:48.141Z,0
2022-12-08T17:08:52.422Z,0
2022-12-08T17:09:56.200Z,0
2022-12-08T17:11:00.192Z,0
2022-12-08T17:12:04.508Z,0
2022-12-08T17:13:08.179Z,0
2022-12-08T17:14:12.238Z,0
2022-12-08T17:15:16.154Z,0
2022-12-08T17:16:20.231Z,0
2022-12-08T17:17:24.162Z,0
2022-12-08T17:18:28.176Z,0
2022-12-08T17:19:32.112Z,0
2022-12-08T17:20:32.615Z,0
2022-12-08T17:21:32.613Z,0
2022-12-08T17:22:32.651Z,0
2022-12-08T17:23:32.611Z,0
2022-12-08T17:24:32.632Z,0
2022-12-08T17:25:32.622Z,0
2022-12-08T17:26:32.609Z,0
2022-12-08T17:27:32.606Z,0
2022-12-08T17:28:58.862Z,0
2022-12-08T17:29:32.674Z,0
2022-12-08T17:30:32.668Z,0
2022-12-08T17:31:32.799Z,0
2022-12-08T17:32:32.669Z,0
2022-12-08T17:33:32.579Z,0
2022-12-08T17:34:32.613Z,0
2022-12-08T17:35:32.667Z,0
2022-12-08T17:36:32.714Z,0
2022-12-08T17:37:32.634Z,0
2022-12-08T17:38:32.659Z,0
2022-12-08T17:39:32.573Z,0
2022-12-08T17:40:32.623Z,0
2022-12-08T17:41:32.623Z,0
2022-12-08T17:42:32.624Z,0
2022-12-08T17:43:32.617Z,0
2022-12-08T17:44:32.619Z,0
2022-12-08T17:45:32.641Z,0
2022-12-08T17:46:35.739Z,0
2022-12-08T17:47:32.602Z,0
2022-12-08T17:48:32.607Z,0
2022-12-08T17:49:32.622Z,0
2022-12-08T17:50:32.647Z,0
2022-12-08T17:51:32.607Z,0
2022-12-08T17:52:32.634Z,0
2022-12-08T17:53:37.207Z,0
2022-12-08T17:54:32.638Z,0
2022-12-08T17:55:32.608Z,0
2022-12-08T17:56:32.881Z,0
2022-12-08T17:57:32.932Z,0
2022-12-08T17:58:32.655Z,0
2022-12-08T17:59:32.921Z,0
2022-12-08T18:00:32.622Z,0
2022-12-08T18:01:32.688Z,0
2022-12-08T18:02:32.761Z,0
2022-12-08T18:03:32.588Z,0
2022-12-08T18:04:32.609Z,0
2022-12-08T18:05:32.614Z,0
2022-12-08T18:06:32.648Z,0
2022-12-08T18:07:34.237Z,0
2022-12-08T18:08:32.611Z,0
2022-12-08T18:09:32.782Z,0
2022-12-08T18:10:32.633Z,0
2022-12-08T18:11:32.584Z,0
2022-12-08T18:12:33.601Z,0
2022-12-08T18:13:40.157Z,0
2022-12-08T18:14:44.956Z,0
2022-12-08T18:15:48.106Z,0
2022-12-08T18:16:52.175Z,0
2022-12-08T18:17:56.120Z,0
2022-12-08T18:19:00.413Z,0
2022-12-08T18:20:04.433Z,0
2022-12-08T18:21:08.113Z,0
2022-12-08T18:22:12.148Z,0
2022-12-08T18:23:16.147Z,0
2022-12-08T18:24:20.098Z,0
2022-12-08T18:25:24.236Z,0
2022-12-08T18:26:28.112Z,0
2022-12-08T18:27:32.114Z,0
2022-12-08T18:28:32.621Z,0
2022-12-08T18:29:32.608Z,0
2022-12-08T18:30:32.633Z,0
2022-12-08T18:31:32.676Z,0
2022-12-08T18:32:32.618Z,0
2022-12-08T18:33:32.625Z,0
2022-12-08T18:34:32.636Z,0
2022-12-08T18:35:32.673Z,0
2022-12-08T18:36:32.586Z,0
2022-12-08T18:37:32.603Z,0
2022-12-08T18:38:32.637Z,0
2022-12-08T18:39:32.579Z,0
2022-12-08T18:40:32.605Z,0
2022-12-08T18:41:32.673Z,0
2022-12-08T18:42:32.626Z,0
2022-12-08T18:43:32.612Z,0
2022-12-08T18:44:32.583Z,0
2022-12-08T18:45:32.608Z,0
2022-12-08T18:46:32.723Z,0
2022-12-08T18:47:32.602Z,0
2022-12-08T18:48:32.632Z,0
2022-12-08T18:49:32.611Z,0
2022-12-08T18:50:32.644Z,0
2022-12-08T18:51:32.601Z,0
2022-12-08T18:52:32.691Z,0
2022-12-08T18:53:32.657Z,0
2022-12-08T18:54:58.249Z,0
2022-12-08T18:55:32.678Z,0
2022-12-08T18:56:32.592Z,0
2022-12-08T18:57:32.606Z,0
2022-12-08T18:58:32.669Z,0
2022-12-08T18:59:32.612Z,0
2022-12-08T19:00:32.608Z,0
2022-12-08T19:01:32.718Z,0
2022-12-08T19:02:32.644Z,0
2022-12-08T19:03:32.642Z,0
2022-12-08T19:04:34.757Z,0
2022-12-08T19:05:32.631Z,0
2022-12-08T19:06:32.617Z,0
2022-12-08T19:07:32.629Z,0
2022-12-08T19:08:32.637Z,0
2022-12-08T19:09:32.609Z,0
2022-12-08T19:10:32.716Z,0
2022-12-08T19:11:32.590Z,0
2022-12-08T19:12:32.620Z,0
2022-12-08T19:13:32.636Z,0
2022-12-08T19:14:32.586Z,0
2022-12-08T19:15:32.731Z,0
2022-12-08T19:16:32.672Z,0
2022-12-08T19:17:32.623Z,0
2022-12-08T19:18:32.595Z,0
2022-12-08T19:19:32.607Z,0
2022-12-08T19:20:32.624Z,0
2022-12-08T19:21:32.618Z,0
2022-12-08T19:22:32.649Z,0
2022-12-08T19:23:32.574Z,0
2022-12-08T19:24:32.613Z,0
2022-12-08T19:25:32.634Z,0
2022-12-08T19:26:32.610Z,0
2022-12-08T19:27:32.589Z,0
2022-12-08T19:28:32.625Z,0
2022-12-08T19:29:32.642Z,0
2022-12-08T19:30:32.621Z,0
2022-12-08T19:31:32.654Z,0
2022-12-08T19:32:32.617Z,0
2022-12-08T19:33:32.618Z,0
2022-12-08T19:34:32.740Z,0
2022-12-08T19:35:32.567Z,0
2022-12-08T19:36:32.596Z,0
2022-12-08T19:37:32.594Z,0
2022-12-08T19:38:32.658Z,0
2022-12-08T19:39:32.582Z,0
2022-12-08T19:40:32.644Z,0
2022-12-08T19:41:32.630Z,0
2022-12-08T19:42:32.807Z,0
2022-12-08T19:43:32.599Z,0
2022-12-08T19:44:32.591Z,0
2022-12-08T19:45:32.997Z,0
2022-12-08T19:46:38.740Z,0
2022-12-08T19:47:32.978Z,0
2022-12-08T19:48:32.865Z,0
2022-12-08T19:49:32.668Z,0
2022-12-08T19:50:32.936Z,0
2022-12-08T19:51:32.871Z,0
2022-12-08T19:52:32.616Z,0
2022-12-08T19:53:32.888Z,0
2022-12-08T19:54:32.637Z,0
2022-12-08T19:55:32.708Z,0
2022-12-08T19:56:32.615Z,0
2022-12-08T19:57:32.664Z,0
2022-12-08T19:58:32.980Z,0
2022-12-08T19:59:32.886Z,0
2022-12-08T20:00:32.629Z,0
2022-12-08T20:01:32.662Z,0
2022-12-08T20:02:32.813Z,0
2022-12-08T20:03:32.629Z,0
2022-12-08T20:04:32.608Z,0
2022-12-08T20:05:32.630Z,0
2022-12-08T20:06:32.658Z,0
2022-12-08T20:07:32.636Z,0
2022-12-08T20:08:32.685Z,0
2022-12-08T20:09:32.583Z,0
2022-12-08T20:10:32.588Z,0
2022-12-08T20:11:32.599Z,0
2022-12-08T20:12:32.598Z,0
2022-12-08T20:13:32.606Z,0
2022-12-08T20:14:32.707Z,0
2022-12-08T20:15:32.681Z,0
2022-12-08T20:16:32.721Z,0
2022-12-08T20:17:32.592Z,0
2022-12-08T20:18:32.609Z,0
2022-12-08T20:19:32.655Z,0
2022-12-08T20:20:32.683Z,0
2022-12-08T20:21:32.629Z,0
2022-12-08T20:22:32.632Z,0
2022-12-08T20:23:32.603Z,0
2022-12-08T20:24:32.634Z,0
2022-12-08T20:25:32.594Z,0
2022-12-08T20:26:32.658Z,0
2022-12-08T20:27:32.615Z,0
2022-12-08T20:28:32.592Z,0
2022-12-08T20:29:32.755Z,0
2022-12-08T20:30:32.726Z,0
2022-12-08T20:31:32.654Z,0
2022-12-08T20:32:32.594Z,0
2022-12-08T20:33:32.601Z,0
2022-12-08T20:34:32.611Z,0
2022-12-08T20:35:32.639Z,0
2022-12-08T20:36:32.650Z,0
2022-12-08T20:37:32.630Z,0
2022-12-08T20:38:32.591Z,0
2022-12-08T20:39:32.618Z,0
2022-12-08T20:40:32.581Z,0
2022-12-08T20:41:37.612Z,0
2022-12-08T20:42:32.596Z,0
2022-12-08T20:43:32.568Z,0
2022-12-08T20:44:32.580Z,0
2022-12-08T20:45:32.582Z,0
2022-12-08T20:46:32.751Z,0
2022-12-08T20:47:32.758Z,0
2022-12-08T20:48:32.656Z,0
2022-12-08T20:49:34.749Z,0
2022-12-08T20:50:32.727Z,0
2022-12-08T20:51:32.597Z,0
2022-12-08T20:52:32.592Z,0
2022-12-08T20:53:32.770Z,0
2022-12-08T20:54:32.811Z,0
2022-12-08T20:55:32.673Z,0
2022-12-08T20:56:32.771Z,0
2022-12-08T20:57:32.679Z,0
2022-12-08T20:58:32.732Z,0
2022-12-08T20:59:32.664Z,0
2022-12-08T21:00:32.766Z,0
2022-12-08T21:01:32.738Z,0
2022-12-08T21:02:33.027Z,0
2022-12-08T21:03:32.863Z,0
2022-12-08T21:04:32.818Z,0
2022-12-08T21:05:32.785Z,0
2022-12-08T21:06:32.685Z,0
2022-12-08T21:07:32.836Z,0
2022-12-08T21:08:32.706Z,0
2022-12-08T21:09:32.644Z,0
2022-12-08T21:10:32.606Z,0
2022-12-08T21:11:32.594Z,0
2022-12-08T21:12:32.656Z,0
2022-12-08T21:13:32.659Z,0
2022-12-08T21:14:32.646Z,0
2022-12-08T21:15:32.639Z,0
2022-12-08T21:16:32.927Z,0
2022-12-08T21:17:32.835Z,0
2022-12-08T21:18:38.894Z,0
2022-12-08T21:19:32.684Z,0
2022-12-08T21:20:32.705Z,0
2022-12-08T21:21:32.695Z,0
2022-12-08T21:22:32.746Z,0
2022-12-08T21:23:32.836Z,0
2022-12-08T21:24:34.742Z,0
2022-12-08T21:25:32.694Z,0
2022-12-08T21:26:32.781Z,0
2022-12-08T21:27:32.610Z,0